GMTN  Saniat Rmel Airport

Add Bookmark

Morocco

Status IATA
Operational TTU
Latitude Longitude
35° 35' 39" N 5° 19' 12" W
35.594299 -5.320020
Local (DST + 1) UTC (GMT 0)
Jul 28, 2014 06:14 Jul 28, 2014 06:14
Sunrise-Sunset Local UTC
Begin Civil Twilight 04:57 04:57
Sunrise 05:25 05:25
Sunset 07:30 19:30
End Civil Twilight 07:58 19:58

Current Weather

METAR Observed MVFR
GMTN 280500Z 26006KT 220V290 6000 NSC 22/16 Q1015 NOSIG Mon, Jul 28, 2014 @ 05:00 UTC
(1 Hour, 14 Minutes ago)
Marginal Visual Flight Rules

Decoded METAR

Wind Visibility Clouds Conditions
260° at 6 knots (11 kph) 6000 meters
  • Clear skies
  • No significant weather
Temperatures Readings Precipitation
Current Temp 22°C (72°F)
Dewpoint 16°C (61°F)
Humidity 69%
Altimeter 29.97"Hg
Sea Level Pressure 1015mb
Field Elevation 32.81'
None Recorded

Additional weather within a 92.6km radius of GMTN

Map ICAO Location
GMTT 55.9km W (285°)
LXGB 61.9km N (360°)

24 Hour Weather History

Loading
-

24 Hour Weather Graphs

Loading
-

CheckWX.com is intended as a tool to help pilots better visualize weather data. It is not intended as a substitute for an official weather briefing obtained from a Flight Service Station. CheckWX.com does not meet the FAA requirements for an official pre-flight weather briefing. Therefore, it's important that pilots still call and obtain an official FSS pre-flight weather briefing.